createdAt,value
2022-11-05T00:05:03.568Z,12.9
2022-11-05T00:12:35.848Z,13.1
2022-11-05T00:20:08.131Z,12.7
2022-11-05T00:27:40.417Z,11.7
2022-11-05T00:35:12.725Z,11.8
2022-11-05T00:42:44.998Z,12.1
2022-11-05T00:50:17.286Z,10.5
2022-11-05T00:57:49.582Z,13.0
2022-11-05T01:05:21.868Z,10.2
2022-11-05T01:12:54.143Z,10.4
2022-11-05T01:20:26.428Z,14.7
2022-11-05T01:27:58.710Z,11.9
2022-11-05T01:35:30.992Z,14.9
2022-11-05T01:43:03.284Z,11.1
2022-11-05T01:50:35.563Z,9.7
2022-11-05T01:58:07.830Z,11.2
2022-11-05T02:05:40.099Z,11.4
2022-11-05T02:13:12.749Z,11.6
2022-11-05T02:20:50.931Z,10.7
2022-11-05T02:28:24.383Z,9.6
2022-11-05T02:35:56.651Z,9.9
2022-11-05T02:43:28.935Z,11.2
2022-11-05T02:51:01.214Z,11.1
2022-11-05T02:58:33.484Z,10.0
2022-11-05T03:06:05.762Z,10.4
2022-11-05T03:13:38.027Z,9.0
2022-11-05T03:21:10.295Z,9.5
2022-11-05T03:28:42.563Z,10.1
2022-11-05T03:36:14.835Z,8.7
2022-11-05T03:43:47.103Z,9.9
2022-11-05T03:51:19.381Z,11.0
2022-11-05T03:58:56.140Z,11.8
2022-11-05T04:06:31.101Z,9.9
2022-11-05T04:14:03.371Z,10.0
2022-11-05T04:21:35.642Z,8.5
2022-11-05T04:29:08.095Z,10.4
2022-11-05T04:36:40.410Z,8.7
2022-11-05T04:44:12.693Z,9.8
2022-11-05T04:51:44.966Z,8.4
2022-11-05T04:59:17.252Z,9.3
2022-11-05T05:06:49.540Z,9.6
2022-11-05T05:14:21.827Z,9.9
2022-11-05T05:21:54.100Z,12.3
2022-11-05T05:29:26.373Z,10.3
2022-11-05T05:36:58.662Z,11.4
2022-11-05T05:44:30.931Z,9.3
2022-11-05T05:52:03.204Z,10.3
2022-11-05T05:59:35.502Z,9.2
2022-11-05T06:07:07.772Z,9.3
2022-11-05T06:14:40.060Z,12.1
2022-11-05T06:21:49.644Z,11.1
2022-11-05T06:22:36.931Z,9.8
2022-11-05T06:23:24.206Z,18.8
2022-11-05T06:24:11.476Z,15.4
2022-11-05T06:24:58.790Z,15.1
2022-11-05T06:25:46.062Z,16.5
2022-11-05T06:26:33.392Z,17.8
2022-11-05T06:27:20.665Z,21.8
2022-11-05T06:28:07.935Z,20.0
2022-11-05T06:28:55.202Z,23.4
2022-11-05T06:29:42.508Z,19.0
2022-11-05T06:30:29.778Z,20.8
2022-11-05T06:31:17.043Z,23.4
2022-11-05T06:32:04.334Z,24.7
2022-11-05T06:32:51.601Z,22.6
2022-11-05T06:33:38.881Z,24.4
2022-11-05T06:34:26.171Z,23.9
2022-11-05T06:35:13.441Z,20.0
2022-11-05T06:36:00.884Z,27.7
2022-11-05T06:36:48.159Z,18.6
2022-11-05T06:37:35.441Z,20.6
2022-11-05T06:38:22.722Z,20.7
2022-11-05T06:39:10.028Z,22.7
2022-11-05T06:39:57.294Z,32.1
2022-11-05T06:40:44.576Z,18.4
2022-11-05T06:41:35.475Z,21.9
2022-11-05T06:42:29.106Z,22.0
2022-11-05T06:43:16.517Z,30.2
2022-11-05T06:44:03.810Z,21.1
2022-11-05T06:44:51.105Z,23.6
2022-11-05T06:45:38.497Z,21.2
2022-11-05T06:46:25.787Z,21.0
2022-11-05T06:47:13.057Z,24.2
2022-11-05T06:48:00.456Z,26.5
2022-11-05T06:48:47.718Z,31.6
2022-11-05T06:49:35.017Z,23.0
2022-11-05T06:50:22.430Z,23.8
2022-11-05T06:51:09.731Z,22.3
2022-11-05T06:51:57.002Z,23.4
2022-11-05T06:52:44.416Z,26.0
2022-11-05T06:53:31.718Z,25.0
2022-11-05T06:54:19.011Z,22.3
2022-11-05T06:55:06.431Z,28.7
2022-11-05T06:55:53.716Z,26.7
2022-11-05T06:56:41.019Z,20.9
2022-11-05T06:57:28.418Z,28.2
2022-11-05T06:58:15.696Z,28.2
2022-11-05T06:59:02.971Z,24.4
2022-11-05T06:59:50.382Z,21.3
2022-11-05T07:00:37.685Z,26.4
2022-11-05T07:01:25.123Z,27.2
2022-11-05T07:02:12.608Z,33.2
2022-11-05T07:02:59.954Z,24.7
2022-11-05T07:03:47.237Z,25.8
2022-11-05T07:04:34.661Z,25.1
2022-11-05T07:05:21.926Z,28.5
2022-11-05T07:06:09.208Z,21.5
2022-11-05T07:06:56.633Z,28.1
2022-11-05T07:07:43.918Z,26.0
2022-11-05T07:08:31.188Z,24.9
2022-11-05T07:09:18.634Z,27.9
2022-11-05T07:10:06.018Z,27.9
2022-11-05T07:10:53.291Z,26.1
2022-11-05T07:11:40.718Z,27.2
2022-11-05T07:12:27.988Z,28.5
2022-11-05T07:13:15.684Z,23.7
2022-11-05T07:14:03.215Z,21.5
2022-11-05T07:14:50.680Z,29.7
2022-11-05T07:15:37.954Z,23.2
2022-11-05T07:16:25.228Z,28.9
2022-11-05T07:17:12.534Z,24.1
2022-11-05T07:17:59.808Z,21.6
2022-11-05T07:18:47.092Z,18.2
2022-11-05T07:19:34.500Z,23.8
2022-11-05T07:20:21.795Z,23.5
2022-11-05T07:21:09.068Z,24.1
2022-11-05T07:21:56.469Z,26.7
2022-11-05T07:22:43.743Z,22.0
2022-11-05T07:23:31.020Z,20.7
2022-11-05T07:24:18.406Z,31.3
2022-11-05T07:25:05.664Z,19.8
2022-11-05T07:25:52.943Z,28.4
2022-11-05T07:26:40.350Z,30.2
2022-11-05T07:27:27.623Z,24.5
2022-11-05T07:28:14.887Z,24.8
2022-11-05T07:29:02.336Z,23.5
2022-11-05T07:29:49.622Z,23.1
2022-11-05T07:30:36.890Z,30.4
2022-11-05T07:31:24.339Z,30.9
2022-11-05T07:32:11.607Z,22.1
2022-11-05T07:32:58.903Z,28.3
2022-11-05T07:33:46.304Z,21.6
2022-11-05T07:34:33.604Z,20.7
2022-11-05T07:35:20.874Z,25.0
2022-11-05T07:36:08.309Z,19.8
2022-11-05T07:36:55.583Z,19.6
2022-11-05T07:37:42.875Z,24.5
2022-11-05T07:38:30.295Z,20.1
2022-11-05T07:39:17.592Z,20.5
2022-11-05T07:40:04.871Z,22.0
2022-11-05T07:40:52.309Z,19.5
2022-11-05T07:41:39.616Z,23.2
2022-11-05T07:42:26.923Z,19.9
2022-11-05T07:43:14.642Z,23.9
2022-11-05T07:44:02.038Z,19.9
2022-11-05T07:44:49.322Z,19.7
2022-11-05T07:45:36.630Z,24.2
2022-11-05T07:46:23.904Z,23.2
2022-11-05T07:47:11.167Z,19.9
2022-11-05T07:47:58.495Z,17.6
2022-11-05T07:48:45.769Z,24.6
2022-11-05T07:49:33.067Z,20.5
2022-11-05T07:50:20.398Z,30.6
2022-11-05T07:51:07.668Z,23.5
2022-11-05T07:51:54.942Z,25.2
2022-11-05T07:52:42.267Z,31.5
2022-11-05T07:53:29.559Z,24.1
2022-11-05T07:54:16.868Z,18.6
2022-11-05T07:55:04.155Z,22.4
2022-11-05T07:55:51.443Z,22.9
2022-11-05T07:56:38.720Z,22.2
2022-11-05T07:57:26.035Z,19.8
2022-11-05T07:58:13.308Z,33.0
2022-11-05T07:59:00.581Z,18.4
2022-11-05T07:59:47.910Z,25.4
2022-11-05T08:00:35.246Z,22.4
2022-11-05T08:01:22.708Z,22.4
2022-11-05T08:02:10.210Z,22.7
2022-11-05T08:03:02.160Z,23.3
2022-11-05T08:03:54.327Z,26.4
2022-11-05T08:04:41.743Z,24.7
2022-11-05T08:05:29.031Z,28.3
2022-11-05T08:06:16.298Z,21.5
2022-11-05T08:07:03.741Z,25.9
2022-11-05T08:07:51.010Z,25.9
2022-11-05T08:08:38.297Z,22.0
2022-11-05T08:09:25.724Z,21.2
2022-11-05T08:10:13.018Z,32.0
2022-11-05T08:11:00.305Z,23.3
2022-11-05T08:11:47.721Z,23.6
2022-11-05T08:12:35.003Z,25.7
2022-11-05T08:13:22.276Z,25.3
2022-11-05T08:14:09.711Z,23.1
2022-11-05T08:14:56.981Z,27.4
2022-11-05T08:15:44.262Z,24.7
2022-11-05T08:16:31.816Z,22.5
2022-11-05T08:17:19.102Z,28.7
2022-11-05T08:18:06.391Z,27.5
2022-11-05T08:18:53.799Z,24.5
2022-11-05T08:19:41.077Z,22.1
2022-11-05T08:20:28.350Z,28.7
2022-11-05T08:21:15.763Z,24.0
2022-11-05T08:22:03.046Z,25.4
2022-11-05T08:22:50.319Z,26.1
2022-11-05T08:23:37.849Z,23.5
2022-11-05T08:24:25.127Z,34.6
2022-11-05T08:25:12.404Z,22.6
2022-11-05T08:25:59.794Z,35.5
2022-11-05T08:26:47.067Z,20.5
2022-11-05T08:27:34.363Z,25.3
2022-11-05T08:28:21.739Z,24.8
2022-11-05T08:29:09.015Z,22.7
2022-11-05T08:29:56.290Z,25.9
2022-11-05T08:30:43.693Z,22.7
2022-11-05T08:31:30.977Z,23.6
2022-11-05T08:32:18.259Z,25.9
2022-11-05T08:33:05.641Z,22.7
2022-11-05T08:33:53.836Z,27.1
2022-11-05T08:34:43.325Z,20.7
2022-11-05T08:35:30.717Z,20.9
2022-11-05T08:36:18.008Z,22.1
2022-11-05T08:37:05.336Z,25.7
2022-11-05T08:37:52.705Z,22.7
2022-11-05T08:38:39.987Z,23.1
2022-11-05T08:39:27.253Z,29.8
2022-11-05T08:40:14.619Z,23.3
2022-11-05T08:41:01.985Z,22.8
2022-11-05T08:41:49.259Z,25.2
2022-11-05T08:42:36.627Z,22.1
2022-11-05T08:43:23.916Z,27.8
2022-11-05T08:44:11.195Z,23.5
2022-11-05T08:44:58.569Z,19.5
2022-11-05T08:45:45.843Z,21.1
2022-11-05T08:46:36.476Z,23.6
2022-11-05T08:47:27.716Z,21.1
2022-11-05T08:48:15.208Z,18.9
2022-11-05T08:49:02.528Z,27.3
2022-11-05T08:49:49.833Z,22.3
2022-11-05T08:50:37.258Z,23.9
2022-11-05T08:51:24.596Z,19.4
2022-11-05T08:52:11.876Z,25.7
2022-11-05T08:52:59.279Z,30.1
2022-11-05T08:53:46.547Z,23.2
2022-11-05T08:54:33.819Z,35.3
2022-11-05T08:55:21.277Z,29.8
2022-11-05T08:56:08.566Z,21.9
2022-11-05T08:56:55.831Z,25.5
2022-11-05T08:57:43.248Z,25.8
2022-11-05T08:58:30.523Z,25.7
2022-11-05T08:59:17.808Z,25.9
2022-11-05T09:00:05.192Z,27.9
2022-11-05T09:00:52.747Z,32.0
2022-11-05T09:01:40.201Z,45.4
2022-11-05T09:02:27.657Z,31.9
2022-11-05T09:03:15.467Z,26.5
2022-11-05T09:04:02.888Z,23.9
2022-11-05T09:04:50.281Z,33.9
2022-11-05T09:05:37.564Z,33.0
2022-11-05T09:06:24.836Z,24.7
2022-11-05T09:07:12.244Z,27.0
2022-11-05T09:08:01.594Z,22.9
2022-11-05T09:08:49.073Z,23.2
2022-11-05T09:09:36.450Z,18.1
2022-11-05T09:10:23.743Z,26.5
2022-11-05T09:11:11.102Z,26.6
2022-11-05T09:12:11.846Z,22.1
2022-11-05T09:12:55.762Z,22.3
2022-11-05T09:13:43.163Z,23.7
2022-11-05T09:14:30.444Z,19.7
2022-11-05T09:15:17.739Z,21.3
2022-11-05T09:16:05.148Z,24.8
2022-11-05T09:16:52.425Z,31.7
2022-11-05T09:17:39.712Z,24.3
2022-11-05T09:18:27.112Z,22.8
2022-11-05T09:19:14.397Z,25.2
2022-11-05T09:20:01.673Z,20.3
2022-11-05T09:20:49.086Z,20.8
2022-11-05T09:21:36.360Z,23.8
2022-11-05T09:22:23.697Z,24.8
2022-11-05T09:23:11.381Z,27.0
2022-11-05T09:23:59.050Z,23.6
2022-11-05T09:24:46.343Z,22.2
2022-11-05T09:25:33.626Z,24.7
2022-11-05T09:26:20.903Z,36.2
2022-11-05T09:27:08.176Z,22.5
2022-11-05T09:27:55.442Z,29.6
2022-11-05T09:28:42.867Z,27.3
2022-11-05T09:29:30.164Z,21.0
2022-11-05T09:30:17.438Z,23.1
2022-11-05T09:31:04.795Z,29.9
2022-11-05T09:31:52.076Z,25.7
2022-11-05T09:32:39.381Z,19.5
2022-11-05T09:33:26.709Z,20.8
2022-11-05T09:34:13.988Z,32.1
2022-11-05T09:35:01.286Z,20.1
2022-11-05T09:35:48.620Z,19.5
2022-11-05T09:36:35.906Z,29.1
2022-11-05T09:37:23.272Z,22.2
2022-11-05T09:38:10.542Z,22.9
2022-11-05T09:38:57.820Z,23.1
2022-11-05T09:39:45.135Z,19.2
2022-11-05T09:43:20.646Z,25.0
2022-11-05T09:44:08.074Z,25.9
2022-11-05T09:44:55.364Z,20.4
2022-11-05T09:45:42.656Z,29.9
2022-11-05T09:46:30.104Z,20.7
2022-11-05T09:47:17.411Z,24.0
2022-11-05T09:48:04.720Z,24.8
2022-11-05T09:48:52.126Z,22.3
2022-11-05T09:49:39.428Z,20.5
2022-11-05T09:50:26.723Z,19.5
2022-11-05T09:51:16.872Z,24.1
2022-11-05T09:52:08.176Z,25.5
2022-11-05T09:52:55.582Z,30.3
2022-11-05T09:53:42.859Z,19.8
2022-11-05T09:54:30.128Z,22.4
2022-11-05T09:55:17.539Z,22.1
2022-11-05T09:56:04.812Z,26.1
2022-11-05T09:56:52.088Z,21.1
2022-11-05T09:57:39.474Z,23.7
2022-11-05T09:58:28.833Z,20.7
2022-11-05T09:59:16.350Z,23.9
2022-11-05T10:00:03.733Z,24.7
2022-11-05T10:00:51.063Z,22.1
2022-11-05T10:01:38.561Z,23.2
2022-11-05T10:02:25.990Z,23.4
2022-11-05T10:03:13.612Z,23.7
2022-11-05T10:04:01.039Z,38.2
2022-11-05T10:04:48.439Z,20.4
2022-11-05T10:05:35.825Z,22.9
2022-11-05T10:06:23.142Z,20.8
2022-11-05T10:07:10.502Z,23.3
2022-11-05T10:07:57.783Z,23.8
2022-11-05T10:08:45.067Z,21.5
2022-11-05T10:09:32.419Z,21.7
2022-11-05T10:10:19.697Z,21.6
2022-11-05T10:11:06.989Z,23.5
2022-11-05T10:11:54.332Z,22.4
2022-11-05T10:12:41.616Z,21.8
2022-11-05T10:13:28.899Z,18.8
2022-11-05T10:14:16.243Z,22.3
2022-11-05T10:15:03.549Z,18.8
2022-11-05T10:15:50.818Z,19.5
2022-11-05T10:16:38.186Z,20.9
2022-11-05T10:17:25.474Z,31.9
2022-11-05T10:18:12.755Z,24.1
2022-11-05T10:19:00.098Z,31.2
2022-11-05T10:19:47.376Z,25.9
2022-11-05T10:20:34.658Z,36.1
2022-11-05T10:21:44.149Z,31.4
2022-11-05T10:22:19.253Z,23.8
2022-11-05T10:23:06.679Z,25.3
2022-11-05T10:23:53.963Z,21.1
2022-11-05T10:24:41.239Z,23.9
2022-11-05T10:25:28.668Z,23.7
2022-11-05T10:26:15.944Z,20.0
2022-11-05T10:27:03.216Z,24.0
2022-11-05T10:27:50.896Z,23.1
2022-11-05T10:28:38.176Z,21.2
2022-11-05T10:29:25.437Z,32.5
2022-11-05T10:30:12.888Z,21.4
2022-11-05T10:31:00.163Z,23.3
2022-11-05T10:31:47.430Z,38.7
2022-11-05T10:32:34.881Z,27.9
2022-11-05T10:33:22.156Z,24.1
2022-11-05T10:34:09.429Z,27.7
2022-11-05T10:34:56.847Z,22.9
2022-11-05T10:35:44.119Z,26.0
2022-11-05T10:36:31.411Z,26.5
2022-11-05T10:37:18.834Z,27.8
2022-11-05T10:38:06.117Z,22.3
2022-11-05T10:38:53.387Z,26.4
2022-11-05T10:39:40.840Z,30.9
2022-11-05T10:40:28.143Z,23.3
2022-11-05T10:41:15.410Z,25.1
2022-11-05T10:42:02.856Z,30.6
2022-11-05T10:42:50.139Z,24.0
2022-11-05T10:43:37.409Z,28.8
2022-11-05T10:44:24.851Z,19.7
2022-11-05T10:45:12.135Z,26.2
2022-11-05T10:45:59.415Z,25.2
2022-11-05T10:46:46.844Z,30.8
2022-11-05T10:47:34.121Z,47.3
2022-11-05T10:48:21.403Z,36.8
2022-11-05T10:49:08.688Z,33.4
2022-11-05T10:49:55.984Z,29.3
2022-11-05T10:50:43.260Z,29.2
2022-11-05T10:51:30.716Z,29.1
2022-11-05T10:52:18.025Z,23.3
2022-11-05T10:53:05.303Z,27.6
2022-11-05T10:53:55.944Z,31.4
2022-11-05T10:54:46.118Z,32.6
2022-11-05T10:55:33.463Z,21.4
2022-11-05T10:56:20.753Z,28.6
2022-11-05T10:57:08.022Z,21.9
2022-11-05T10:57:55.478Z,29.2
2022-11-05T10:58:42.791Z,24.7
2022-11-05T10:59:30.091Z,26.8
2022-11-05T11:00:17.570Z,25.1
2022-11-05T11:01:04.930Z,24.9
2022-11-05T11:01:52.357Z,32.1
2022-11-05T11:02:39.760Z,28.7
2022-11-05T11:03:27.098Z,25.5
2022-11-05T11:04:14.371Z,32.5
2022-11-05T11:05:01.829Z,25.4
2022-11-05T11:05:49.229Z,28.5
2022-11-05T11:06:36.518Z,19.7
2022-11-05T11:07:23.937Z,22.3
2022-11-05T11:08:11.228Z,24.6
2022-11-05T11:08:58.525Z,28.9
2022-11-05T11:09:45.931Z,23.4
2022-11-05T11:10:33.209Z,32.8
2022-11-05T11:11:20.492Z,24.3
2022-11-05T11:12:07.920Z,22.8
2022-11-05T11:12:55.192Z,21.0
2022-11-05T11:13:42.511Z,22.2
2022-11-05T11:14:29.883Z,23.6
2022-11-05T11:15:17.187Z,37.6
2022-11-05T11:16:04.459Z,25.3
2022-11-05T11:16:51.907Z,23.1
2022-11-05T11:17:39.307Z,19.8
2022-11-05T11:18:26.598Z,21.8
2022-11-05T11:19:14.009Z,20.7
2022-11-05T11:20:01.295Z,24.8
2022-11-05T11:20:48.600Z,23.5
2022-11-05T11:21:36.019Z,24.9
2022-11-05T11:22:23.282Z,22.9
2022-11-05T11:23:10.830Z,23.4
2022-11-05T11:23:58.350Z,27.8
2022-11-05T11:24:45.703Z,27.5
2022-11-05T11:25:32.988Z,20.8
2022-11-05T11:26:20.316Z,22.0
2022-11-05T11:27:07.596Z,29.9
2022-11-05T11:27:54.871Z,26.1
2022-11-05T11:28:42.193Z,26.5
2022-11-05T11:29:29.470Z,23.0
2022-11-05T11:30:16.845Z,27.1
2022-11-05T11:31:04.216Z,24.8
2022-11-05T11:31:51.491Z,26.6
2022-11-05T11:32:38.759Z,25.0
2022-11-05T11:33:26.053Z,32.5
2022-11-05T11:34:13.319Z,22.0
2022-11-05T11:35:00.851Z,26.6
2022-11-05T11:35:48.119Z,24.1
2022-11-05T11:36:35.402Z,26.8
2022-11-05T11:37:23.450Z,24.5
2022-11-05T11:38:10.979Z,27.4
2022-11-05T11:38:58.287Z,30.2
2022-11-05T11:39:45.563Z,26.4
2022-11-05T11:40:32.847Z,25.3
2022-11-05T11:41:20.270Z,29.8
2022-11-05T11:42:07.576Z,28.0
2022-11-05T11:42:54.925Z,25.9
2022-11-05T11:43:42.343Z,33.5
2022-11-05T11:44:29.882Z,27.0
2022-11-05T11:45:17.333Z,28.0
2022-11-05T11:46:07.709Z,24.4
2022-11-05T11:46:57.220Z,29.4
2022-11-05T11:47:44.700Z,25.7
2022-11-05T11:48:31.979Z,32.7
2022-11-05T11:49:19.259Z,28.8
2022-11-05T11:50:06.648Z,25.7
2022-11-05T11:50:53.926Z,27.4
2022-11-05T11:58:26.194Z,26.7
2022-11-05T12:05:58.466Z,32.1
2022-11-05T12:13:30.768Z,38.6
2022-11-05T12:21:03.063Z,29.9
2022-11-05T12:28:36.163Z,37.3
2022-11-05T12:36:08.623Z,26.7
2022-11-05T12:43:41.083Z,31.1
2022-11-05T12:51:13.402Z,31.0
2022-11-05T12:58:45.703Z,30.0
2022-11-05T13:06:17.989Z,25.7
2022-11-05T13:13:50.269Z,31.2
2022-11-05T13:21:22.548Z,28.4
2022-11-05T13:28:54.840Z,23.6
2022-11-05T13:36:27.143Z,29.5
2022-11-05T13:43:59.414Z,26.9
2022-11-05T13:51:37.689Z,26.5
2022-11-05T13:59:11.269Z,26.3
2022-11-05T14:06:43.561Z,24.4
2022-11-05T14:14:15.840Z,24.5
2022-11-05T14:21:48.122Z,23.8
2022-11-05T14:29:20.390Z,25.4
2022-11-05T14:36:52.681Z,28.8
2022-11-05T14:44:24.980Z,26.8
2022-11-05T14:51:57.285Z,30.5
2022-11-05T14:59:29.554Z,27.8
2022-11-05T15:07:01.827Z,24.0
2022-11-05T15:14:34.112Z,29.5
2022-11-05T15:22:06.390Z,23.3
2022-11-05T15:29:38.667Z,23.1
2022-11-05T15:37:10.956Z,22.9
2022-11-05T15:44:43.231Z,24.1
2022-11-05T15:52:15.516Z,23.7
2022-11-05T15:59:48.299Z,27.9
2022-11-05T16:07:20.571Z,23.5
2022-11-05T16:14:52.867Z,23.5
2022-11-05T16:22:25.149Z,24.3
2022-11-05T16:29:57.464Z,31.5
2022-11-05T16:37:29.781Z,26.4
2022-11-05T16:45:02.061Z,23.1
2022-11-05T16:52:34.349Z,25.3
2022-11-05T17:00:06.651Z,30.6
2022-11-05T17:07:41.484Z,23.7
2022-11-05T17:15:13.935Z,24.1
2022-11-05T17:22:46.203Z,28.7
2022-11-05T17:30:18.473Z,24.0
2022-11-05T17:37:50.754Z,26.9
2022-11-05T17:45:23.028Z,21.6
2022-11-05T17:52:55.306Z,27.0
2022-11-05T18:00:27.588Z,23.2
2022-11-05T18:07:59.872Z,25.4
2022-11-05T18:15:32.160Z,25.5
2022-11-05T18:23:04.440Z,25.2
2022-11-05T18:30:36.735Z,29.4
2022-11-05T18:38:09.015Z,28.3
2022-11-05T18:45:41.300Z,25.8
2022-11-05T18:53:13.587Z,25.5
2022-11-05T19:00:45.883Z,34.5
2022-11-05T19:08:18.185Z,23.1
2022-11-05T19:15:50.458Z,23.6
2022-11-05T19:23:22.742Z,25.2
2022-11-05T19:30:55.020Z,24.7
2022-11-05T19:38:27.313Z,27.1
2022-11-05T19:45:59.948Z,27.2
2022-11-05T19:53:32.232Z,27.9
2022-11-05T20:01:04.549Z,25.0
2022-11-05T20:08:47.859Z,37.1
2022-11-05T20:16:19.182Z,27.3
2022-11-05T20:23:51.466Z,28.8
2022-11-05T20:31:23.767Z,28.1
2022-11-05T20:38:56.067Z,34.5
2022-11-05T20:46:28.357Z,38.0
2022-11-05T20:54:00.659Z,34.5
2022-11-05T21:01:33.114Z,33.9
2022-11-05T21:09:05.506Z,31.0
2022-11-05T21:16:37.813Z,28.2
2022-11-05T21:24:10.114Z,31.3
2022-11-05T21:31:42.412Z,32.1
2022-11-05T21:39:14.707Z,34.0
2022-11-05T21:46:47.017Z,28.6
2022-11-05T21:54:19.314Z,36.3
2022-11-05T22:01:51.725Z,32.1
2022-11-05T22:09:24.071Z,33.6
2022-11-05T22:16:56.368Z,29.5
2022-11-05T22:24:28.650Z,33.0
2022-11-05T22:32:00.941Z,30.6
2022-11-05T22:39:33.226Z,31.9
2022-11-05T22:47:05.565Z,31.8
2022-11-05T22:54:39.449Z,31.7
2022-11-05T23:02:12.052Z,30.9
2022-11-05T23:09:44.438Z,28.6
2022-11-05T23:17:16.741Z,30.4
2022-11-05T23:24:49.032Z,29.8
2022-11-05T23:32:21.327Z,30.6
2022-11-05T23:39:53.623Z,30.3
2022-11-05T23:47:25.927Z,27.7
2022-11-05T23:54:58.219Z,27.3
